sensor_id;sensor_type;location;lat;lon;timestamp;pressure;altitude;pressure_sealevel;temperature;humidity
40982;BME280;26708;50.304;19.028;2023-02-10T00:01:05;100007.63;;;-0.34;46.25
40982;BME280;26708;50.304;19.028;2023-02-10T00:03:32;99935.81;;;-0.71;46.31
40982;BME280;26708;50.304;19.028;2023-02-10T00:05:40;99921.38;;;-0.82;46.42
40982;BME280;26708;50.304;19.028;2023-02-10T00:07:49;100058.25;;;-0.07;46.45
40982;BME280;26708;50.304;19.028;2023-02-10T00:09:59;100029.56;;;-0.13;46.45
40982;BME280;26708;50.304;19.028;2023-02-10T00:12:04;100027.09;;;-0.11;46.43
40982;BME280;26708;50.304;19.028;2023-02-10T00:14:12;99863.72;;;-1.00;46.48
40982;BME280;26708;50.304;19.028;2023-02-10T00:16:18;99957.22;;;-0.45;46.62
40982;BME280;26708;50.304;19.028;2023-02-10T00:18:22;99878.91;;;-0.90;46.50
40982;BME280;26708;50.304;19.028;2023-02-10T00:20:29;99835.50;;;-1.13;46.44
40982;BME280;26708;50.304;19.028;2023-02-10T00:22:34;100016.41;;;-0.17;46.62
40982;BME280;26708;50.304;19.028;2023-02-10T00:24:43;99942.47;;;-0.34;46.58
40982;BME280;26708;50.304;19.028;2023-02-10T00:26:49;100006.56;;;0.03;46.43
40982;BME280;26708;50.304;19.028;2023-02-10T00:28:56;100003.72;;;-0.01;46.36
40982;BME280;26708;50.304;19.028;2023-02-10T00:31:11;100007.25;;;0.01;46.52
40982;BME280;26708;50.304;19.028;2023-02-10T00:33:22;100021.09;;;0.03;46.44
40982;BME280;26708;50.304;19.028;2023-02-10T00:35:28;99978.63;;;-0.18;46.47
40982;BME280;26708;50.304;19.028;2023-02-10T00:37:34;99837.47;;;-0.96;46.60
40982;BME280;26708;50.304;19.028;2023-02-10T00:39:39;99811.41;;;-1.15;46.75
40982;BME280;26708;50.304;19.028;2023-02-10T00:41:53;100021.16;;;0.17;46.51
40982;BME280;26708;50.304;19.028;2023-02-10T00:43:58;99932.41;;;-0.44;46.38
40982;BME280;26708;50.304;19.028;2023-02-10T00:46:04;99998.56;;;-0.01;46.35
40982;BME280;26708;50.304;19.028;2023-02-10T00:48:11;99946.41;;;-0.26;46.41
40982;BME280;26708;50.304;19.028;2023-02-10T00:50:20;99968.91;;;-0.09;46.36
40982;BME280;26708;50.304;19.028;2023-02-10T00:52:30;100024.03;;;0.22;46.46
40982;BME280;26708;50.304;19.028;2023-02-10T00:54:42;100007.50;;;0.18;46.36
40982;BME280;26708;50.304;19.028;2023-02-10T00:56:47;99818.88;;;-0.92;46.11
40982;BME280;26708;50.304;19.028;2023-02-10T00:58:55;100016.31;;;0.22;46.44
40982;BME280;26708;50.304;19.028;2023-02-10T01:03:19;99815.31;;;-0.94;46.17
40982;BME280;26708;50.304;19.028;2023-02-10T01:05:29;99964.75;;;-0.07;46.09
40982;BME280;26708;50.304;19.028;2023-02-10T01:07:37;99941.56;;;-0.22;46.26
40982;BME280;26708;50.304;19.028;2023-02-10T01:09:41;100005.81;;;0.18;46.08
40982;BME280;26708;50.304;19.028;2023-02-10T01:11:53;99968.78;;;0.02;46.31
40982;BME280;26708;50.304;19.028;2023-02-10T01:14:01;99885.28;;;-0.58;46.24
40982;BME280;26708;50.304;19.028;2023-02-10T01:16:08;99859.41;;;-0.61;46.36
40982;BME280;26708;50.304;19.028;2023-02-10T01:18:18;99976.81;;;-0.06;46.31
40982;BME280;26708;50.304;19.028;2023-02-10T01:20:29;99970.28;;;0.13;46.27
40982;BME280;26708;50.304;19.028;2023-02-10T01:22:36;99945.94;;;-0.06;46.12
40982;BME280;26708;50.304;19.028;2023-02-10T01:24:41;99994.22;;;0.25;46.24
40982;BME280;26708;50.304;19.028;2023-02-10T01:26:48;100006.94;;;0.36;46.31
40982;BME280;26708;50.304;19.028;2023-02-10T01:28:52;100006.13;;;0.37;46.23
40982;BME280;26708;50.304;19.028;2023-02-10T01:31:04;99843.19;;;-0.60;46.16
40982;BME280;26708;50.304;19.028;2023-02-10T01:33:15;99889.75;;;-0.28;46.10
40982;BME280;26708;50.304;19.028;2023-02-10T01:35:30;99929.66;;;0.08;46.10
40982;BME280;26708;50.304;19.028;2023-02-10T01:37:34;99929.50;;;0.05;46.14
40982;BME280;26708;50.304;19.028;2023-02-10T01:39:40;99808.59;;;-0.65;46.17
40982;BME280;26708;50.304;19.028;2023-02-10T01:41:44;99798.28;;;-0.79;46.04
40982;BME280;26708;50.304;19.028;2023-02-10T01:44:00;99904.38;;;-0.27;46.23
40982;BME280;26708;50.304;19.028;2023-02-10T01:46:11;99803.44;;;-0.79;46.22
40982;BME280;26708;50.304;19.028;2023-02-10T01:48:17;100000.72;;;0.33;46.18
40982;BME280;26708;50.304;19.028;2023-02-10T01:50:28;99950.34;;;0.09;46.23
40982;BME280;26708;50.304;19.028;2023-02-10T01:52:38;99809.50;;;-0.64;46.01
40982;BME280;26708;50.304;19.028;2023-02-10T01:54:51;99958.34;;;0.14;46.05
40982;BME280;26708;50.304;19.028;2023-02-10T01:57:02;99941.56;;;0.06;45.96
40982;BME280;26708;50.304;19.028;2023-02-10T01:59:12;99967.31;;;0.20;45.83
40982;BME280;26708;50.304;19.028;2023-02-10T02:01:21;99830.00;;;-0.51;45.76
40982;BME280;26708;50.304;19.028;2023-02-10T02:03:26;99768.00;;;-0.85;45.66
40982;BME280;26708;50.304;19.028;2023-02-10T02:05:37;99801.31;;;-0.72;45.78
40982;BME280;26708;50.304;19.028;2023-02-10T02:07:50;99818.81;;;-0.66;45.67
40982;BME280;26708;50.304;19.028;2023-02-10T02:09:57;99845.94;;;-0.57;45.75
40982;BME280;26708;50.304;19.028;2023-02-10T02:12:18;99983.00;;;0.24;45.91
40982;BME280;26708;50.304;19.028;2023-02-10T02:14:39;99715.28;;;-1.33;45.76
40982;BME280;26708;50.304;19.028;2023-02-10T02:17:00;99930.13;;;-0.12;45.80
40982;BME280;26708;50.304;19.028;2023-02-10T02:22:40;99975.28;;;0.24;45.84
40982;BME280;26708;50.304;19.028;2023-02-10T02:25:20;99847.69;;;-0.43;46.15
40982;BME280;26708;50.304;19.028;2023-02-10T02:28:02;99926.97;;;-0.08;46.00
40982;BME280;26708;50.304;19.028;2023-02-10T02:30:39;99928.19;;;-0.16;46.12
40982;BME280;26708;50.304;19.028;2023-02-10T02:33:11;99752.84;;;-1.08;46.12
40982;BME280;26708;50.304;19.028;2023-02-10T02:35:26;99973.66;;;0.12;46.16
40982;BME280;26708;50.304;19.028;2023-02-10T02:37:37;99948.50;;;-0.06;46.09
40982;BME280;26708;50.304;19.028;2023-02-10T02:39:50;99867.00;;;-0.49;46.03
40982;BME280;26708;50.304;19.028;2023-02-10T02:42:16;99845.50;;;-0.77;46.30
40982;BME280;26708;50.304;19.028;2023-02-10T02:44:23;99847.22;;;-0.78;46.18
40982;BME280;26708;50.304;19.028;2023-02-10T02:46:37;99758.81;;;-1.22;46.39
40982;BME280;26708;50.304;19.028;2023-02-10T02:49:08;99972.84;;;-0.01;46.27
40982;BME280;26708;50.304;19.028;2023-02-10T02:51:36;99671.19;;;-1.81;46.42
40982;BME280;26708;50.304;19.028;2023-02-10T02:53:58;99978.13;;;-0.13;46.65
40982;BME280;26708;50.304;19.028;2023-02-10T02:56:18;99909.50;;;-0.54;46.82
40982;BME280;26708;50.304;19.028;2023-02-10T02:58:44;99823.03;;;-0.94;46.74
40982;BME280;26708;50.304;19.028;2023-02-10T03:01:00;99857.09;;;-0.84;46.72
40982;BME280;26708;50.304;19.028;2023-02-10T03:03:10;99972.88;;;-0.14;46.87
40982;BME280;26708;50.304;19.028;2023-02-10T03:05:22;99968.41;;;-0.17;46.78
40982;BME280;26708;50.304;19.028;2023-02-10T03:07:37;99972.47;;;-0.20;46.81
40982;BME280;26708;50.304;19.028;2023-02-10T03:09:43;99817.75;;;-1.23;46.90
40982;BME280;26708;50.304;19.028;2023-02-10T03:11:54;99686.16;;;-2.00;46.94
40982;BME280;26708;50.304;19.028;2023-02-10T03:13:59;99974.59;;;-0.28;46.98
40982;BME280;26708;50.304;19.028;2023-02-10T03:16:05;99838.44;;;-1.07;47.05
40982;BME280;26708;50.304;19.028;2023-02-10T03:18:12;99982.72;;;-0.35;47.10
40982;BME280;26708;50.304;19.028;2023-02-10T03:20:20;99978.25;;;-0.37;47.28
40982;BME280;26708;50.304;19.028;2023-02-10T03:22:27;99975.50;;;-0.40;47.33
40982;BME280;26708;50.304;19.028;2023-02-10T03:24:39;99930.88;;;-0.68;47.39
40982;BME280;26708;50.304;19.028;2023-02-10T03:26:47;99906.31;;;-0.91;47.38
40982;BME280;26708;50.304;19.028;2023-02-10T03:28:53;99660.75;;;-2.23;47.51
40982;BME280;26708;50.304;19.028;2023-02-10T03:33:26;99727.78;;;-1.91;47.52
40982;BME280;26708;50.304;19.028;2023-02-10T03:35:37;99860.59;;;-1.22;47.60
40982;BME280;26708;50.304;19.028;2023-02-10T03:37:44;99923.78;;;-0.72;47.58
40982;BME280;26708;50.304;19.028;2023-02-10T03:39:49;99972.66;;;-0.45;47.46
40982;BME280;26708;50.304;19.028;2023-02-10T03:41:54;99833.66;;;-1.29;47.37
40982;BME280;26708;50.304;19.028;2023-02-10T03:44:11;99721.38;;;-1.85;47.36
40982;BME280;26708;50.304;19.028;2023-02-10T03:46:19;99842.16;;;-1.17;47.31
40982;BME280;26708;50.304;19.028;2023-02-10T03:48:26;99853.47;;;-1.13;47.27
40982;BME280;26708;50.304;19.028;2023-02-10T03:50:33;99920.81;;;-0.65;47.21
40982;BME280;26708;50.304;19.028;2023-02-10T03:52:42;99894.53;;;-0.74;47.17
40982;BME280;26708;50.304;19.028;2023-02-10T03:54:47;99947.66;;;-0.47;47.05
40982;BME280;26708;50.304;19.028;2023-02-10T03:56:53;99984.09;;;-0.27;46.90
40982;BME280;26708;50.304;19.028;2023-02-10T03:59:00;99829.50;;;-1.14;46.98
40982;BME280;26708;50.304;19.028;2023-02-10T04:01:10;99845.97;;;-1.10;46.83
40982;BME280;26708;50.304;19.028;2023-02-10T04:03:18;99815.97;;;-1.37;46.93
40982;BME280;26708;50.304;19.028;2023-02-10T04:05:24;99940.53;;;-0.51;46.82
40982;BME280;26708;50.304;19.028;2023-02-10T04:07:34;99936.91;;;-0.68;46.75
40982;BME280;26708;50.304;19.028;2023-02-10T04:09:40;99986.25;;;-0.20;46.64
40982;BME280;26708;50.304;19.028;2023-02-10T04:11:49;99991.38;;;-0.20;46.51
40982;BME280;26708;50.304;19.028;2023-02-10T04:13:53;99984.28;;;-0.24;46.57
40982;BME280;26708;50.304;19.028;2023-02-10T04:16:01;99970.16;;;-0.30;46.56
40982;BME280;26708;50.304;19.028;2023-02-10T04:18:07;99991.09;;;-0.24;46.47
40982;BME280;26708;50.304;19.028;2023-02-10T04:20:13;99798.00;;;-1.37;46.56
40982;BME280;26708;50.304;19.028;2023-02-10T04:22:21;99900.66;;;-0.85;46.64
40982;BME280;26708;50.304;19.028;2023-02-10T04:24:28;99987.44;;;-0.28;46.59
40982;BME280;26708;50.304;19.028;2023-02-10T04:26:33;99914.94;;;-0.63;46.57
40982;BME280;26708;50.304;19.028;2023-02-10T04:28:43;99698.41;;;-1.96;46.31
40982;BME280;26708;50.304;19.028;2023-02-10T04:30:51;99986.53;;;-0.28;46.32
40982;BME280;26708;50.304;19.028;2023-02-10T04:32:56;99982.31;;;-0.28;46.45
40982;BME280;26708;50.304;19.028;2023-02-10T04:35:07;99800.56;;;-1.37;46.24
40982;BME280;26708;50.304;19.028;2023-02-10T04:37:23;99840.63;;;-1.13;46.38
40982;BME280;26708;50.304;19.028;2023-02-10T04:39:30;99987.84;;;-0.35;46.28
40982;BME280;26708;50.304;19.028;2023-02-10T04:41:36;99846.19;;;-1.20;46.40
40982;BME280;26708;50.304;19.028;2023-02-10T04:43:40;99998.94;;;-0.36;46.24
40982;BME280;26708;50.304;19.028;2023-02-10T04:45:45;99982.72;;;-0.48;46.38
40982;BME280;26708;50.304;19.028;2023-02-10T04:47:50;99847.16;;;-1.31;46.30
40982;BME280;26708;50.304;19.028;2023-02-10T04:49:55;99920.91;;;-0.90;46.24
40982;BME280;26708;50.304;19.028;2023-02-10T04:51:59;100000.44;;;-0.39;46.26
40982;BME280;26708;50.304;19.028;2023-02-10T04:54:05;100006.47;;;-0.39;46.21
40982;BME280;26708;50.304;19.028;2023-02-10T04:56:13;99830.69;;;-1.35;46.21
40982;BME280;26708;50.304;19.028;2023-02-10T04:58:18;99997.16;;;-0.37;46.27
40982;BME280;26708;50.304;19.028;2023-02-10T05:00:26;99810.53;;;-1.42;46.14
40982;BME280;26708;50.304;19.028;2023-02-10T05:02:31;99917.25;;;-0.80;46.07
40982;BME280;26708;50.304;19.028;2023-02-10T05:04:35;99918.75;;;-0.84;46.08
40982;BME280;26708;50.304;19.028;2023-02-10T05:06:41;99996.94;;;-0.40;46.09
40982;BME280;26708;50.304;19.028;2023-02-10T05:08:45;99947.00;;;-0.84;46.21
40982;BME280;26708;50.304;19.028;2023-02-10T05:10:52;99892.88;;;-1.00;46.04
40982;BME280;26708;50.304;19.028;2023-02-10T05:13:00;100002.09;;;-0.40;46.13
40982;BME280;26708;50.304;19.028;2023-02-10T05:15:05;99966.44;;;-0.61;46.05
40982;BME280;26708;50.304;19.028;2023-02-10T05:17:14;100001.81;;;-0.44;46.18
40982;BME280;26708;50.304;19.028;2023-02-10T05:19:20;99886.56;;;-1.18;46.60
40982;BME280;26708;50.304;19.028;2023-02-10T05:21:24;99989.47;;;-0.50;46.35
40982;BME280;26708;50.304;19.028;2023-02-10T05:23:29;99810.84;;;-1.63;46.24
40982;BME280;26708;50.304;19.028;2023-02-10T05:25:35;100006.75;;;-0.47;46.22
40982;BME280;26708;50.304;19.028;2023-02-10T05:27:40;99805.44;;;-1.68;46.42
40982;BME280;26708;50.304;19.028;2023-02-10T05:29:47;99854.50;;;-1.50;46.48
40982;BME280;26708;50.304;19.028;2023-02-10T05:31:52;99795.75;;;-1.85;46.15
40982;BME280;26708;50.304;19.028;2023-02-10T05:33:58;100017.94;;;-0.60;46.36
40982;BME280;26708;50.304;19.028;2023-02-10T05:36:03;99886.56;;;-1.44;46.41
40982;BME280;26708;50.304;19.028;2023-02-10T05:38:09;99954.09;;;-1.19;46.49
40982;BME280;26708;50.304;19.028;2023-02-10T05:40:14;100046.78;;;-0.64;46.52
40982;BME280;26708;50.304;19.028;2023-02-10T05:42:18;99891.88;;;-1.54;46.29
40982;BME280;26708;50.304;19.028;2023-02-10T05:44:26;99913.41;;;-1.39;46.49
40982;BME280;26708;50.304;19.028;2023-02-10T05:46:35;100005.97;;;-0.85;46.53
40982;BME280;26708;50.304;19.028;2023-02-10T05:48:40;99806.69;;;-1.87;46.49
40982;BME280;26708;50.304;19.028;2023-02-10T05:50:54;99894.16;;;-1.32;46.58
40982;BME280;26708;50.304;19.028;2023-02-10T05:53:00;99945.91;;;-1.00;46.41
40982;BME280;26708;50.304;19.028;2023-02-10T05:55:06;99892.50;;;-1.32;46.33
40982;BME280;26708;50.304;19.028;2023-02-10T05:57:12;99964.69;;;-0.88;46.33
40982;BME280;26708;50.304;19.028;2023-02-10T05:59:17;99879.25;;;-1.38;46.30
40982;BME280;26708;50.304;19.028;2023-02-10T06:01:22;100051.44;;;-0.45;46.42
40982;BME280;26708;50.304;19.028;2023-02-10T06:03:30;99915.50;;;-1.20;46.21
40982;BME280;26708;50.304;19.028;2023-02-10T06:05:35;100044.91;;;-0.53;46.28
40982;BME280;26708;50.304;19.028;2023-02-10T06:07:40;100021.59;;;-0.69;46.27
40982;BME280;26708;50.304;19.028;2023-02-10T06:09:46;99818.91;;;-1.83;46.25
40982;BME280;26708;50.304;19.028;2023-02-10T06:11:51;99844.81;;;-1.67;46.33
40982;BME280;26708;50.304;19.028;2023-02-10T06:13:56;99914.28;;;-1.38;46.40
40982;BME280;26708;50.304;19.028;2023-02-10T06:16:02;99844.56;;;-1.83;46.44
40982;BME280;26708;50.304;19.028;2023-02-10T06:18:26;99914.09;;;-1.41;46.52
40982;BME280;26708;50.304;19.028;2023-02-10T06:20:39;100049.47;;;-0.62;46.51
40982;BME280;26708;50.304;19.028;2023-02-10T06:22:45;100042.25;;;-0.81;46.70
40982;BME280;26708;50.304;19.028;2023-02-10T06:24:51;99990.56;;;-0.98;46.45
40982;BME280;26708;50.304;19.028;2023-02-10T06:27:03;99814.06;;;-2.05;46.51
40982;BME280;26708;50.304;19.028;2023-02-10T06:29:11;99854.44;;;-1.89;46.54
40982;BME280;26708;50.304;19.028;2023-02-10T06:31:16;99963.88;;;-1.26;46.65
40982;BME280;26708;50.304;19.028;2023-02-10T06:33:21;100053.81;;;-0.61;46.82
40982;BME280;26708;50.304;19.028;2023-02-10T06:35:31;99900.06;;;-1.59;46.61
40982;BME280;26708;50.304;19.028;2023-02-10T06:37:36;100041.56;;;-0.78;46.70
40982;BME280;26708;50.304;19.028;2023-02-10T06:39:41;99909.06;;;-1.53;46.56
40982;BME280;26708;50.304;19.028;2023-02-10T06:41:46;100044.84;;;-0.68;46.60
40982;BME280;26708;50.304;19.028;2023-02-10T06:43:51;100018.03;;;-0.71;46.55
40982;BME280;26708;50.304;19.028;2023-02-10T06:45:56;99963.47;;;-1.06;46.50
40982;BME280;26708;50.304;19.028;2023-02-10T06:48:01;100049.56;;;-0.48;46.22
40982;BME280;26708;50.304;19.028;2023-02-10T06:50:06;99911.34;;;-1.18;46.32
40982;BME280;26708;50.304;19.028;2023-02-10T06:52:14;100065.28;;;-0.30;46.22
40982;BME280;26708;50.304;19.028;2023-02-10T06:54:20;100044.34;;;-0.49;46.21
40982;BME280;26708;50.304;19.028;2023-02-10T06:56:24;100032.38;;;-0.49;46.30
40982;BME280;26708;50.304;19.028;2023-02-10T06:58:29;100065.50;;;-0.27;46.21
40982;BME280;26708;50.304;19.028;2023-02-10T07:00:34;99871.44;;;-1.39;46.15
40982;BME280;26708;50.304;19.028;2023-02-10T07:02:39;100056.09;;;-0.27;45.98
40982;BME280;26708;50.304;19.028;2023-02-10T07:04:44;99899.78;;;-1.25;46.01
40982;BME280;26708;50.304;19.028;2023-02-10T07:06:50;100033.25;;;-0.35;45.82
40982;BME280;26708;50.304;19.028;2023-02-10T07:08:57;100092.03;;;-0.01;45.84
40982;BME280;26708;50.304;19.028;2023-02-10T07:11:02;100093.34;;;0.06;45.73
40982;BME280;26708;50.304;19.028;2023-02-10T07:13:08;100091.06;;;0.10;45.86
40982;BME280;26708;50.304;19.028;2023-02-10T07:15:13;100076.31;;;0.08;45.59
40982;BME280;26708;50.304;19.028;2023-02-10T07:17:19;100076.88;;;0.17;45.24
40982;BME280;26708;50.304;19.028;2023-02-10T07:19:26;99984.72;;;-0.44;45.27
40982;BME280;26708;50.304;19.028;2023-02-10T07:21:31;100077.72;;;0.30;45.31
40982;BME280;26708;50.304;19.028;2023-02-10T07:23:36;100081.38;;;0.33;45.14
40982;BME280;26708;50.304;19.028;2023-02-10T07:25:44;100045.41;;;0.21;45.06
40982;BME280;26708;50.304;19.028;2023-02-10T07:27:48;100088.78;;;0.42;44.79
40982;BME280;26708;50.304;19.028;2023-02-10T07:29:53;99846.25;;;-0.93;44.74
40982;BME280;26708;50.304;19.028;2023-02-10T07:31:58;100036.78;;;0.20;44.62
40982;BME280;26708;50.304;19.028;2023-02-10T07:34:03;100029.72;;;0.30;44.75
40982;BME280;26708;50.304;19.028;2023-02-10T07:36:09;100086.22;;;0.69;44.48
40982;BME280;26708;50.304;19.028;2023-02-10T07:38:15;100088.34;;;0.76;44.45
40982;BME280;26708;50.304;19.028;2023-02-10T07:40:19;100077.09;;;0.74;44.17
40982;BME280;26708;50.304;19.028;2023-02-10T07:42:26;99826.72;;;-0.76;44.05
40982;BME280;26708;50.304;19.028;2023-02-10T07:44:52;99968.16;;;0.06;43.73
40982;BME280;26708;50.304;19.028;2023-02-10T07:46:56;100091.69;;;0.88;44.01
40982;BME280;26708;50.304;19.028;2023-02-10T07:49:01;99893.56;;;-0.21;43.95
40982;BME280;26708;50.304;19.028;2023-02-10T07:51:06;99939.91;;;0.21;43.92
40982;BME280;26708;50.304;19.028;2023-02-10T07:53:11;100086.81;;;1.07;43.93
40982;BME280;26708;50.304;19.028;2023-02-10T07:55:16;99989.03;;;0.52;43.59
40982;BME280;26708;50.304;19.028;2023-02-10T07:57:21;99970.47;;;0.58;43.51
40982;BME280;26708;50.304;19.028;2023-02-10T07:59:28;100088.25;;;1.31;43.47
40982;BME280;26708;50.304;19.028;2023-02-10T08:01:33;100083.19;;;1.33;43.37
40982;BME280;26708;50.304;19.028;2023-02-10T08:03:43;100095.09;;;1.45;42.86
40982;BME280;26708;50.304;19.028;2023-02-10T08:05:48;100058.81;;;1.28;42.87
40982;BME280;26708;50.304;19.028;2023-02-10T08:07:53;100059.34;;;1.37;43.09
40982;BME280;26708;50.304;19.028;2023-02-10T08:09:59;99924.22;;;0.59;42.74
40982;BME280;26708;50.304;19.028;2023-02-10T08:12:04;100100.22;;;1.74;42.53
40982;BME280;26708;50.304;19.028;2023-02-10T08:14:09;99949.88;;;1.01;42.46
40982;BME280;26708;50.304;19.028;2023-02-10T08:16:17;99896.59;;;0.57;42.35
40982;BME280;26708;50.304;19.028;2023-02-10T08:18:22;100099.03;;;1.84;42.25
40982;BME280;26708;50.304;19.028;2023-02-10T08:20:27;100047.75;;;1.45;42.04
40982;BME280;26708;50.304;19.028;2023-02-10T08:22:33;100090.47;;;1.85;42.08
40982;BME280;26708;50.304;19.028;2023-02-10T08:24:37;100105.94;;;1.99;41.90
40982;BME280;26708;50.304;19.028;2023-02-10T08:26:43;99963.97;;;1.22;42.19
40982;BME280;26708;50.304;19.028;2023-02-10T08:28:49;100112.69;;;2.12;41.90
40982;BME280;26708;50.304;19.028;2023-02-10T08:30:58;100119.88;;;2.17;41.76
40982;BME280;26708;50.304;19.028;2023-02-10T08:33:06;100026.94;;;1.56;41.64
40982;BME280;26708;50.304;19.028;2023-02-10T08:35:14;99943.97;;;1.18;41.51
40982;BME280;26708;50.304;19.028;2023-02-10T08:37:19;100012.56;;;1.45;41.49
40982;BME280;26708;50.304;19.028;2023-02-10T08:39:27;100125.53;;;2.26;41.31
40982;BME280;26708;50.304;19.028;2023-02-10T08:41:33;100118.69;;;2.27;41.43
40982;BME280;26708;50.304;19.028;2023-02-10T08:43:38;99964.13;;;1.40;41.38
40982;BME280;26708;50.304;19.028;2023-02-10T08:45:42;100120.31;;;2.25;41.26
40982;BME280;26708;50.304;19.028;2023-02-10T08:47:48;100105.16;;;2.00;41.32
40982;BME280;26708;50.304;19.028;2023-02-10T08:49:55;99977.81;;;1.39;41.34
40982;BME280;26708;50.304;19.028;2023-02-10T08:52:07;99983.22;;;1.43;41.55
40982;BME280;26708;50.304;19.028;2023-02-10T08:54:29;100120.72;;;2.32;41.43
40982;BME280;26708;50.304;19.028;2023-02-10T08:56:34;100116.59;;;2.36;41.21
40982;BME280;26708;50.304;19.028;2023-02-10T08:58:39;100004.63;;;1.57;41.31
40982;BME280;26708;50.304;19.028;2023-02-10T09:00:45;99975.91;;;1.51;41.11
40982;BME280;26708;50.304;19.028;2023-02-10T09:02:49;100087.41;;;2.06;41.22
40982;BME280;26708;50.304;19.028;2023-02-10T09:04:57;100084.13;;;2.09;41.25
40982;BME280;26708;50.304;19.028;2023-02-10T09:07:02;100032.41;;;1.77;41.23
40982;BME280;26708;50.304;19.028;2023-02-10T09:09:08;100123.06;;;2.44;41.11
40982;BME280;26708;50.304;19.028;2023-02-10T09:11:13;99967.00;;;1.60;41.02
40982;BME280;26708;50.304;19.028;2023-02-10T09:13:19;100113.28;;;2.53;41.08
40982;BME280;26708;50.304;19.028;2023-02-10T09:15:23;100102.94;;;2.53;41.12
40982;BME280;26708;50.304;19.028;2023-02-10T09:17:28;100007.13;;;1.86;40.86
40982;BME280;26708;50.304;19.028;2023-02-10T09:19:34;100118.16;;;2.63;40.87
40982;BME280;26708;50.304;19.028;2023-02-10T09:21:41;99977.66;;;1.66;40.97
40982;BME280;26708;50.304;19.028;2023-02-10T09:23:46;99928.38;;;1.62;41.16
40982;BME280;26708;50.304;19.028;2023-02-10T09:25:53;99949.13;;;1.79;40.60
40982;BME280;26708;50.304;19.028;2023-02-10T09:27:58;99935.59;;;1.83;40.14
40982;BME280;26708;50.304;19.028;2023-02-10T09:30:03;100083.41;;;2.74;40.04
40982;BME280;26708;50.304;19.028;2023-02-10T09:32:10;99969.50;;;2.05;39.86
40982;BME280;26708;50.304;19.028;2023-02-10T09:34:15;100039.72;;;2.62;39.83
40982;BME280;26708;50.304;19.028;2023-02-10T09:36:20;100062.00;;;2.76;39.69
40982;BME280;26708;50.304;19.028;2023-02-10T09:38:28;100013.81;;;2.61;39.63
40982;BME280;26708;50.304;19.028;2023-02-10T09:40:47;99926.31;;;2.03;39.49
40982;BME280;26708;50.304;19.028;2023-02-10T09:43:14;99961.06;;;2.41;39.88
40982;BME280;26708;50.304;19.028;2023-02-10T09:45:34;99956.72;;;2.40;39.80
40982;BME280;26708;50.304;19.028;2023-02-10T09:47:48;99942.03;;;2.55;39.55
40982;BME280;26708;50.304;19.028;2023-02-10T09:50:10;100005.75;;;2.88;39.51
40982;BME280;26708;50.304;19.028;2023-02-10T09:52:41;99953.41;;;2.43;39.24
40982;BME280;26708;50.304;19.028;2023-02-10T09:54:59;99961.91;;;2.56;39.17
40982;BME280;26708;50.304;19.028;2023-02-10T09:57:12;100141.69;;;3.66;39.29
40982;BME280;26708;50.304;19.028;2023-02-10T09:59:22;100065.75;;;3.15;39.26
40982;BME280;26708;50.304;19.028;2023-02-10T10:01:31;100034.06;;;3.19;39.29
40982;BME280;26708;50.304;19.028;2023-02-10T10:03:47;100091.09;;;3.55;38.88
40982;BME280;26708;50.304;19.028;2023-02-10T10:06:04;99943.44;;;2.82;38.87
40982;BME280;26708;50.304;19.028;2023-02-10T10:08:23;99981.94;;;3.11;38.79
40982;BME280;26708;50.304;19.028;2023-02-10T10:10:41;100123.91;;;3.90;38.65
40982;BME280;26708;50.304;19.028;2023-02-10T10:12:53;100015.00;;;3.34;38.87
40982;BME280;26708;50.304;19.028;2023-02-10T10:14:58;99969.53;;;3.22;38.61
40982;BME280;26708;50.304;19.028;2023-02-10T10:17:14;100056.13;;;3.63;38.72
40982;BME280;26708;50.304;19.028;2023-02-10T10:19:47;100056.44;;;3.69;38.72
40982;BME280;26708;50.304;19.028;2023-02-10T10:22:11;99975.97;;;3.30;38.99
40982;BME280;26708;50.304;19.028;2023-02-10T10:24:42;99972.53;;;3.29;38.74
40982;BME280;26708;50.304;19.028;2023-02-10T10:27:16;99983.59;;;3.27;38.45
40982;BME280;26708;50.304;19.028;2023-02-10T10:29:41;100114.50;;;4.09;38.63
40982;BME280;26708;50.304;19.028;2023-02-10T10:32:00;100032.94;;;3.65;38.77
40982;BME280;26708;50.304;19.028;2023-02-10T10:34:20;99917.81;;;3.04;38.79
40982;BME280;26708;50.304;19.028;2023-02-10T10:36:34;99960.16;;;3.24;38.51
40982;BME280;26708;50.304;19.028;2023-02-10T10:38:48;100113.16;;;4.17;38.52
40982;BME280;26708;50.304;19.028;2023-02-10T10:41:01;100098.00;;;4.07;38.63
40982;BME280;26708;50.304;19.028;2023-02-10T10:43:17;100093.66;;;3.89;38.76
40982;BME280;26708;50.304;19.028;2023-02-10T10:45:31;100110.34;;;4.12;39.09
40982;BME280;26708;50.304;19.028;2023-02-10T10:47:44;100107.03;;;4.15;38.92
40982;BME280;26708;50.304;19.028;2023-02-10T10:49:51;100094.81;;;3.95;39.13
40982;BME280;26708;50.304;19.028;2023-02-10T10:51:56;100093.91;;;4.12;39.01
40982;BME280;26708;50.304;19.028;2023-02-10T10:54:03;100111.53;;;4.19;39.03
40982;BME280;26708;50.304;19.028;2023-02-10T10:56:19;100013.09;;;3.65;38.95
40982;BME280;26708;50.304;19.028;2023-02-10T10:58:37;100007.56;;;3.75;39.00
40982;BME280;26708;50.304;19.028;2023-02-10T11:00:49;100104.13;;;4.26;38.73
40982;BME280;26708;50.304;19.028;2023-02-10T11:02:58;100122.25;;;4.26;38.32
40982;BME280;26708;50.304;19.028;2023-02-10T11:05:05;99992.34;;;3.64;38.46
40982;BME280;26708;50.304;19.028;2023-02-10T11:07:19;100097.97;;;4.24;38.49
40982;BME280;26708;50.304;19.028;2023-02-10T11:09:29;99999.84;;;3.59;38.57
40982;BME280;26708;50.304;19.028;2023-02-10T11:11:38;100039.06;;;3.84;38.43
40982;BME280;26708;50.304;19.028;2023-02-10T11:13:54;99976.41;;;3.39;38.72
40982;BME280;26708;50.304;19.028;2023-02-10T11:16:03;100101.59;;;4.28;38.85
40982;BME280;26708;50.304;19.028;2023-02-10T11:18:17;100051.59;;;4.11;38.73
40982;BME280;26708;50.304;19.028;2023-02-10T11:20:28;100057.94;;;4.18;38.55
40982;BME280;26708;50.304;19.028;2023-02-10T11:22:39;100075.41;;;4.22;38.63
40982;BME280;26708;50.304;19.028;2023-02-10T11:24:50;100091.31;;;4.48;38.62